createdAt,value
2019-03-06T00:02:11.239Z,12.53
2019-03-06T00:04:40.838Z,10.20
2019-03-06T00:07:10.331Z,10.10
2019-03-06T00:09:39.919Z,9.47
2019-03-06T00:12:10.393Z,10.93
2019-03-06T00:14:40.190Z,9.95
2019-03-06T00:17:09.716Z,11.28
2019-03-06T00:19:39.226Z,13.15
2019-03-06T00:22:08.738Z,9.70
2019-03-06T00:24:38.357Z,11.48
2019-03-06T00:27:07.934Z,12.70
2019-03-06T00:29:37.447Z,9.63
2019-03-06T00:32:06.949Z,9.90
2019-03-06T00:34:36.460Z,14.28
2019-03-06T00:37:05.963Z,6.90
2019-03-06T00:39:43.438Z,8.63
2019-03-06T00:42:12.941Z,9.80
2019-03-06T00:44:42.453Z,10.60
2019-03-06T00:47:11.949Z,10.88
2019-03-06T00:49:41.464Z,11.20
2019-03-06T00:52:10.963Z,10.68
2019-03-06T00:54:40.464Z,9.63
2019-03-06T00:57:09.952Z,9.35
2019-03-06T00:59:39.488Z,11.05
2019-03-06T01:02:08.988Z,9.50
2019-03-06T01:04:38.498Z,11.25
2019-03-06T01:07:08.015Z,10.95
2019-03-06T01:09:37.604Z,12.20
2019-03-06T01:12:08.742Z,10.08
2019-03-06T01:14:38.259Z,14.47
2019-03-06T01:17:07.756Z,14.45
2019-03-06T01:19:37.272Z,13.18
2019-03-06T01:22:06.786Z,14.13
2019-03-06T01:24:36.578Z,10.85
2019-03-06T01:27:06.089Z,13.83
2019-03-06T01:29:35.593Z,9.25
2019-03-06T01:32:05.179Z,11.13
2019-03-06T01:34:46.076Z,11.87
2019-03-06T01:37:40.427Z,12.85
2019-03-06T01:40:17.196Z,11.83
2019-03-06T01:42:54.142Z,14.38
2019-03-06T01:45:23.727Z,12.60
2019-03-06T01:47:53.223Z,10.10
2019-03-06T01:50:22.726Z,12.70
2019-03-06T01:52:52.323Z,12.13
2019-03-06T01:55:21.850Z,11.53
2019-03-06T01:57:51.354Z,12.15
2019-03-06T02:00:21.229Z,20.70
2019-03-06T02:02:50.735Z,9.90
2019-03-06T02:05:20.249Z,9.68
2019-03-06T02:07:49.756Z,17.95
2019-03-06T02:10:19.547Z,14.73
2019-03-06T02:12:49.061Z,14.58
2019-03-06T02:15:19.029Z,14.18
2019-03-06T02:17:48.535Z,12.37
2019-03-06T02:20:18.372Z,14.60
2019-03-06T02:22:47.874Z,12.63
2019-03-06T02:25:18.434Z,13.90
2019-03-06T02:27:47.961Z,11.38
2019-03-06T02:30:19.767Z,11.88
2019-03-06T02:32:49.274Z,12.05
2019-03-06T02:35:18.864Z,12.05
2019-03-06T02:37:48.379Z,12.93
2019-03-06T02:40:18.929Z,12.25
2019-03-06T02:42:48.438Z,12.33
2019-03-06T02:45:18.036Z,16.20
2019-03-06T02:47:47.538Z,13.05
2019-03-06T02:50:17.131Z,12.40
2019-03-06T02:52:46.736Z,13.38
2019-03-06T02:55:16.431Z,14.00
2019-03-06T02:58:00.160Z,15.80
2019-03-06T03:00:46.145Z,12.60
2019-03-06T03:03:23.158Z,13.38
2019-03-06T03:06:00.464Z,14.93
2019-03-06T03:08:30.250Z,8.88
2019-03-06T03:10:59.762Z,11.70
2019-03-06T03:13:29.276Z,13.25
2019-03-06T03:15:58.789Z,13.38
2019-03-06T03:18:28.308Z,11.65
2019-03-06T03:20:58.110Z,13.53
2019-03-06T03:23:27.607Z,11.33
2019-03-06T03:25:57.116Z,11.20
2019-03-06T03:28:26.624Z,11.70
2019-03-06T03:30:56.136Z,13.03
2019-03-06T03:33:25.822Z,9.73
2019-03-06T03:35:55.337Z,12.82
2019-03-06T03:38:24.856Z,11.65
2019-03-06T03:40:54.355Z,13.45
2019-03-06T03:43:23.879Z,12.90
2019-03-06T03:45:53.593Z,11.93
2019-03-06T03:48:23.101Z,13.60
2019-03-06T03:50:52.595Z,10.00
2019-03-06T03:53:23.298Z,15.03
2019-03-06T03:55:52.814Z,12.18
2019-03-06T03:58:22.568Z,12.70
2019-03-06T04:00:52.144Z,11.15
2019-03-06T04:03:21.835Z,11.97
2019-03-06T04:05:51.341Z,13.32
2019-03-06T04:08:20.859Z,12.65
2019-03-06T04:10:50.540Z,12.78
2019-03-06T04:13:20.062Z,9.13
2019-03-06T04:15:49.570Z,13.95
2019-03-06T04:18:19.072Z,12.47
2019-03-06T04:20:48.707Z,10.48
2019-03-06T04:23:18.496Z,13.78
2019-03-06T04:25:48.022Z,16.10
2019-03-06T04:28:17.545Z,11.47
2019-03-06T04:30:47.136Z,9.73
2019-03-06T04:33:16.661Z,12.20
2019-03-06T04:35:46.270Z,12.20
2019-03-06T04:38:15.821Z,15.23
2019-03-06T04:40:45.327Z,12.53
2019-03-06T04:43:14.839Z,13.93
2019-03-06T04:45:44.335Z,13.80
2019-03-06T04:48:14.026Z,12.35
2019-03-06T04:50:43.532Z,12.20
2019-03-06T04:53:13.103Z,17.00
2019-03-06T04:55:42.627Z,12.83
2019-03-06T04:58:12.156Z,13.10
2019-03-06T05:00:41.677Z,15.63
2019-03-06T05:03:11.213Z,12.60
2019-03-06T05:05:40.945Z,14.38
2019-03-06T05:08:10.482Z,14.90
2019-03-06T05:10:39.991Z,12.90
2019-03-06T05:13:09.516Z,14.30
2019-03-06T05:15:39.044Z,15.70
2019-03-06T05:18:14.964Z,17.70
2019-03-06T05:20:44.508Z,12.73
2019-03-06T05:23:14.319Z,14.87
2019-03-06T05:25:43.824Z,12.60
2019-03-06T05:28:13.343Z,13.27
2019-03-06T05:30:42.906Z,16.13
2019-03-06T05:33:13.281Z,15.90
2019-03-06T05:36:09.211Z,14.33
2019-03-06T05:38:43.287Z,18.90
2019-03-06T05:41:12.912Z,14.73
2019-03-06T05:43:42.460Z,14.23
2019-03-06T05:46:11.969Z,17.13
2019-03-06T05:48:41.483Z,18.12
2019-03-06T05:51:11.053Z,15.83
2019-03-06T05:53:40.761Z,19.37
2019-03-06T05:56:10.269Z,16.67
2019-03-06T05:58:39.871Z,18.52
2019-03-06T06:01:09.402Z,17.90
2019-03-06T06:03:38.946Z,18.83
2019-03-06T06:06:08.473Z,20.23
2019-03-06T06:08:38.256Z,20.95
2019-03-06T06:11:07.779Z,22.62
2019-03-06T06:13:37.341Z,21.42
2019-03-06T06:16:06.852Z,21.37
2019-03-06T06:18:36.373Z,22.80
2019-03-06T06:21:23.868Z,22.60
2019-03-06T06:23:58.243Z,25.15
2019-03-06T06:26:27.844Z,25.43
2019-03-06T06:28:57.380Z,25.57
2019-03-06T06:31:26.920Z,26.53
2019-03-06T06:33:56.459Z,24.40
2019-03-06T06:36:25.984Z,22.35
2019-03-06T06:38:55.514Z,24.98
2019-03-06T06:41:25.034Z,31.23
2019-03-06T06:43:54.563Z,25.83
2019-03-06T06:46:24.085Z,26.73
2019-03-06T06:48:53.783Z,28.77
2019-03-06T06:52:10.190Z,29.20
2019-03-06T06:54:52.109Z,30.20
2019-03-06T06:57:47.620Z,32.60
2019-03-06T07:01:17.481Z,29.00
2019-03-06T07:04:27.567Z,34.23
2019-03-06T07:07:12.253Z,34.83
2019-03-06T07:10:04.003Z,30.55
2019-03-06T07:12:42.803Z,32.70
2019-03-06T07:15:26.222Z,35.67
2019-03-06T07:18:04.467Z,36.58
2019-03-06T07:20:43.596Z,35.10
2019-03-06T07:23:19.537Z,38.57
2019-03-06T07:26:20.401Z,34.10
2019-03-06T07:28:56.238Z,33.77
2019-03-06T07:31:56.931Z,35.25
2019-03-06T07:35:03.614Z,36.27
2019-03-06T07:37:44.104Z,37.35
2019-03-06T07:40:20.321Z,35.30
2019-03-06T07:43:11.710Z,32.10
2019-03-06T07:45:49.677Z,34.00
2019-03-06T07:48:28.004Z,34.88
2019-03-06T07:51:05.104Z,34.43
2019-03-06T07:53:51.703Z,34.08
2019-03-06T07:56:28.481Z,36.43
2019-03-06T07:58:58.707Z,33.13
2019-03-06T08:01:30.656Z,36.48
2019-03-06T08:04:03.135Z,34.83
2019-03-06T08:06:32.666Z,34.57
2019-03-06T08:09:02.184Z,34.50
2019-03-06T08:11:58.697Z,35.60
2019-03-06T08:14:44.748Z,33.95
2019-03-06T08:17:25.855Z,31.40
2019-03-06T08:20:13.074Z,29.00
2019-03-06T08:23:10.762Z,30.15
2019-03-06T08:25:46.337Z,35.63
2019-03-06T08:28:15.878Z,32.10
2019-03-06T08:30:55.020Z,31.67
2019-03-06T08:33:24.719Z,33.13
2019-03-06T08:35:54.356Z,33.78
2019-03-06T08:38:23.884Z,24.32
2019-03-06T08:40:53.391Z,25.60
2019-03-06T08:43:22.906Z,26.15
2019-03-06T08:46:01.528Z,24.75
2019-03-06T08:48:37.650Z,25.35
2019-03-06T08:51:13.692Z,23.52
2019-03-06T08:54:02.426Z,25.75
2019-03-06T08:56:49.942Z,24.57
2019-03-06T08:59:38.390Z,24.70
2019-03-06T09:02:16.430Z,24.75
2019-03-06T09:05:05.663Z,19.62
2019-03-06T09:07:45.141Z,20.92
2019-03-06T09:10:34.265Z,22.93
2019-03-06T09:13:21.597Z,20.00
2019-03-06T09:16:05.779Z,23.30
2019-03-06T09:18:45.111Z,22.20
2019-03-06T09:21:23.597Z,20.27
2019-03-06T09:24:22.494Z,19.15
2019-03-06T09:27:04.221Z,22.70
2019-03-06T09:29:42.515Z,21.07
2019-03-06T09:32:22.445Z,20.32
2019-03-06T09:35:01.503Z,18.15
2019-03-06T09:37:49.981Z,19.77
2019-03-06T09:40:35.635Z,21.50
2019-03-06T09:43:36.306Z,17.50
2019-03-06T09:46:16.729Z,21.17
2019-03-06T09:49:11.506Z,23.35
2019-03-06T09:52:02.549Z,16.65
2019-03-06T09:54:46.986Z,12.37
2019-03-06T09:57:34.256Z,15.13
2019-03-06T10:00:10.883Z,12.33
2019-03-06T10:02:58.231Z,12.10
2019-03-06T10:05:37.851Z,13.75
2019-03-06T10:08:16.719Z,12.60
2019-03-06T10:11:20.083Z,12.23
2019-03-06T10:14:07.942Z,18.17
2019-03-06T10:16:48.919Z,12.90
2019-03-06T10:19:38.980Z,12.43
2019-03-06T10:22:08.573Z,11.60
2019-03-06T10:24:38.084Z,10.73
2019-03-06T10:27:07.595Z,13.28
2019-03-06T10:29:37.390Z,15.60
2019-03-06T10:32:06.988Z,11.08
2019-03-06T10:34:36.585Z,14.28
2019-03-06T10:39:35.765Z,12.90
2019-03-06T10:42:05.454Z,9.70
2019-03-06T10:44:36.135Z,14.63
2019-03-06T10:47:05.741Z,12.70
2019-03-06T10:49:35.554Z,11.45
2019-03-06T10:52:06.212Z,13.33
2019-03-06T10:54:44.308Z,13.00
2019-03-06T10:57:07.474Z,12.47
2019-03-06T10:59:37.180Z,8.23
2019-03-06T11:02:06.774Z,9.60
2019-03-06T11:04:57.189Z,8.18
2019-03-06T11:07:26.741Z,12.40
2019-03-06T11:09:56.355Z,12.30
2019-03-06T11:12:25.929Z,8.95
2019-03-06T11:14:55.448Z,8.88
2019-03-06T11:17:24.948Z,9.77
2019-03-06T11:19:54.823Z,8.53
2019-03-06T11:22:24.380Z,11.70
2019-03-06T11:24:53.977Z,9.73
2019-03-06T11:27:23.581Z,11.10
2019-03-06T11:29:53.115Z,8.30
2019-03-06T11:32:22.623Z,9.75
2019-03-06T11:34:52.140Z,10.23
2019-03-06T11:37:21.798Z,9.13
2019-03-06T11:39:51.312Z,6.62
2019-03-06T11:42:20.844Z,10.30
2019-03-06T11:44:50.373Z,7.33
2019-03-06T11:47:20.128Z,8.43
2019-03-06T11:49:49.656Z,6.03
2019-03-06T11:52:19.410Z,7.97
2019-03-06T11:54:48.948Z,9.25
2019-03-06T11:57:18.549Z,12.75
2019-03-06T11:59:48.176Z,6.70
2019-03-06T12:02:18.072Z,8.50
2019-03-06T12:04:47.591Z,6.83
2019-03-06T12:07:17.202Z,7.28
2019-03-06T12:09:46.736Z,7.12
2019-03-06T12:12:16.255Z,6.53
2019-03-06T12:14:45.786Z,7.60
2019-03-06T12:17:15.740Z,6.80
2019-03-06T12:19:45.251Z,8.43
2019-03-06T12:22:14.936Z,8.20
2019-03-06T12:24:44.471Z,6.37
2019-03-06T12:27:14.329Z,6.40
2019-03-06T12:29:43.842Z,8.10
2019-03-06T12:32:13.536Z,6.77
2019-03-06T12:34:43.043Z,8.28
2019-03-06T12:37:12.685Z,5.53
2019-03-06T12:39:42.315Z,10.15
2019-03-06T12:42:14.788Z,6.95
2019-03-06T12:44:43.055Z,5.13
2019-03-06T12:47:12.662Z,4.90
2019-03-06T12:49:42.178Z,5.08
2019-03-06T12:52:11.785Z,5.30
2019-03-06T12:54:41.288Z,8.37
2019-03-06T12:57:10.791Z,7.50
2019-03-06T12:59:40.291Z,7.53
2019-03-06T13:02:09.833Z,8.58
2019-03-06T13:04:41.190Z,5.62
2019-03-06T13:07:10.655Z,5.93
2019-03-06T13:09:40.169Z,7.03
2019-03-06T13:12:09.764Z,10.27
2019-03-06T13:14:39.347Z,11.63
2019-03-06T13:17:08.939Z,9.30
2019-03-06T13:19:38.461Z,6.23
2019-03-06T13:22:11.033Z,6.42
2019-03-06T13:24:39.318Z,6.28
2019-03-06T13:27:08.932Z,5.05
2019-03-06T13:29:38.453Z,7.42
2019-03-06T13:32:11.678Z,8.23
2019-03-06T13:34:52.792Z,6.67
2019-03-06T13:37:22.428Z,5.50
2019-03-06T13:39:52.042Z,5.45
2019-03-06T13:42:22.647Z,7.07
2019-03-06T13:44:52.270Z,3.83
2019-03-06T13:47:21.785Z,8.83
2019-03-06T13:49:51.330Z,7.43
2019-03-06T13:52:20.844Z,4.00
2019-03-06T13:54:50.436Z,6.30
2019-03-06T13:57:19.947Z,6.47
2019-03-06T13:59:49.505Z,8.13
2019-03-06T14:02:19.109Z,4.62
2019-03-06T14:04:49.008Z,5.58
2019-03-06T14:07:18.650Z,3.47
2019-03-06T14:09:48.263Z,8.18
2019-03-06T14:12:17.780Z,8.55
2019-03-06T14:14:47.361Z,4.83
2019-03-06T14:17:16.876Z,7.97
2019-03-06T14:19:46.842Z,6.13
2019-03-06T14:22:16.363Z,5.37
2019-03-06T14:24:45.914Z,5.77
2019-03-06T14:27:15.445Z,7.57
2019-03-06T14:29:44.983Z,8.43
2019-03-06T14:32:15.150Z,6.97
2019-03-06T14:34:44.823Z,4.30
2019-03-06T14:37:15.375Z,6.37
2019-03-06T14:39:44.893Z,5.70
2019-03-06T14:42:14.381Z,7.00
2019-03-06T14:44:43.895Z,5.30
2019-03-06T14:47:13.990Z,8.03
2019-03-06T14:49:43.513Z,5.25
2019-03-06T14:52:13.155Z,4.87
2019-03-06T14:54:42.726Z,5.13
2019-03-06T14:57:12.247Z,4.60
2019-03-06T14:59:41.780Z,7.63
2019-03-06T15:02:11.459Z,9.43
2019-03-06T15:04:40.968Z,6.20
2019-03-06T15:07:10.489Z,6.75
2019-03-06T15:09:40.034Z,5.55
2019-03-06T15:12:09.619Z,5.00
2019-03-06T15:14:39.174Z,7.28
2019-03-06T15:17:08.694Z,8.40
2019-03-06T15:19:39.278Z,4.40
2019-03-06T15:22:08.968Z,6.20
2019-03-06T15:24:41.551Z,4.70
2019-03-06T15:27:09.807Z,4.35
2019-03-06T15:29:39.613Z,8.13
2019-03-06T15:32:09.279Z,5.20
2019-03-06T15:34:38.805Z,6.03
2019-03-06T15:37:08.472Z,6.63
2019-03-06T15:39:46.683Z,5.40
2019-03-06T15:42:13.967Z,5.65
2019-03-06T15:44:43.501Z,7.00
2019-03-06T15:47:13.062Z,7.40
2019-03-06T15:49:42.568Z,6.10
2019-03-06T15:52:12.267Z,7.90
2019-03-06T15:54:41.895Z,4.67
2019-03-06T15:57:11.471Z,6.40
2019-03-06T15:59:40.981Z,6.67
2019-03-06T16:02:10.860Z,6.50
2019-03-06T16:04:40.444Z,4.80
2019-03-06T16:07:10.007Z,5.30
2019-03-06T16:09:39.863Z,7.87
2019-03-06T16:12:09.441Z,6.97
2019-03-06T16:14:38.962Z,8.33
2019-03-06T16:17:08.477Z,7.05
2019-03-06T16:19:38.059Z,4.83
2019-03-06T16:22:07.567Z,5.62
2019-03-06T16:24:37.754Z,4.15
2019-03-06T16:27:07.269Z,7.70
2019-03-06T16:29:36.781Z,6.85
2019-03-06T16:32:06.287Z,5.75
2019-03-06T16:34:35.799Z,4.22
2019-03-06T16:37:05.559Z,5.62
2019-03-06T16:39:35.065Z,7.85
2019-03-06T16:42:04.638Z,8.60
2019-03-06T16:44:35.195Z,6.30
2019-03-06T16:47:06.939Z,7.15
2019-03-06T16:49:36.284Z,6.45
2019-03-06T16:52:05.874Z,5.37
2019-03-06T16:54:35.471Z,3.65
2019-03-06T16:57:04.976Z,2.95
2019-03-06T16:59:34.479Z,4.92
2019-03-06T17:02:04.280Z,8.50
2019-03-06T17:04:34.057Z,5.33
2019-03-06T17:07:03.711Z,5.78
2019-03-06T17:09:33.291Z,5.45
2019-03-06T17:12:03.062Z,4.50
2019-03-06T17:14:32.573Z,6.70
2019-03-06T17:17:02.130Z,6.30
2019-03-06T17:19:31.672Z,4.80
2019-03-06T17:22:01.202Z,6.60
2019-03-06T17:24:30.840Z,5.25
2019-03-06T17:27:00.346Z,7.17
2019-03-06T17:29:29.875Z,6.90
2019-03-06T17:31:59.743Z,5.36
2019-03-06T17:34:29.384Z,5.60
2019-03-06T17:37:01.289Z,5.90
2019-03-06T17:39:31.243Z,4.90
2019-03-06T17:42:00.773Z,3.67
2019-03-06T17:44:30.349Z,9.10
2019-03-06T17:46:59.997Z,3.70
2019-03-06T17:49:29.502Z,2.63
2019-03-06T17:51:59.036Z,13.97
2019-03-06T17:54:28.640Z,4.77
2019-03-06T17:56:58.181Z,5.20
2019-03-06T17:59:27.975Z,7.40
2019-03-06T18:01:57.563Z,3.37
2019-03-06T18:04:28.356Z,7.97
2019-03-06T18:06:57.887Z,4.80
2019-03-06T18:09:27.676Z,3.60
2019-03-06T18:11:57.230Z,2.83
2019-03-06T18:14:26.762Z,2.57
2019-03-06T18:16:56.332Z,5.97
2019-03-06T18:19:25.845Z,8.60
2019-03-06T18:21:55.471Z,5.13
2019-03-06T18:24:24.995Z,3.57
2019-03-06T18:26:54.703Z,5.23
2019-03-06T18:29:24.311Z,2.87
2019-03-06T18:31:53.851Z,4.17
2019-03-06T18:34:23.412Z,5.78
2019-03-06T18:36:53.372Z,4.37
2019-03-06T18:39:22.909Z,3.83
2019-03-06T18:41:52.708Z,3.90
2019-03-06T18:44:22.238Z,3.80
2019-03-06T18:46:51.891Z,2.33
2019-03-06T18:49:21.511Z,3.50
2019-03-06T18:51:51.016Z,3.57
2019-03-06T18:54:20.560Z,2.90
2019-03-06T18:56:51.524Z,3.98
2019-03-06T18:59:21.050Z,4.40
2019-03-06T19:01:50.603Z,6.37
2019-03-06T19:04:20.132Z,4.47
2019-03-06T19:06:49.718Z,4.20
2019-03-06T19:09:19.897Z,2.53
2019-03-06T19:11:49.523Z,3.43
2019-03-06T19:14:19.066Z,5.77
2019-03-06T19:16:48.676Z,5.17
2019-03-06T19:19:18.190Z,4.53
2019-03-06T19:21:47.831Z,3.65
2019-03-06T19:24:17.361Z,5.00
2019-03-06T19:26:46.925Z,4.05
2019-03-06T19:29:16.442Z,5.00
2019-03-06T19:31:46.012Z,4.03
2019-03-06T19:34:15.620Z,4.00
2019-03-06T19:36:46.270Z,5.28
2019-03-06T19:39:16.079Z,3.20
2019-03-06T19:41:45.604Z,4.67
2019-03-06T19:44:15.137Z,4.73
2019-03-06T19:46:44.671Z,4.77
2019-03-06T19:49:14.171Z,5.90
2019-03-06T19:51:51.290Z,4.83
2019-03-06T19:54:15.030Z,3.83
2019-03-06T19:56:44.568Z,4.10
2019-03-06T19:59:14.079Z,2.95
2019-03-06T20:01:43.635Z,4.10
2019-03-06T20:04:13.166Z,3.60
2019-03-06T20:06:43.744Z,4.97
2019-03-06T20:09:24.320Z,4.40
2019-03-06T20:11:53.925Z,6.28
2019-03-06T20:14:23.533Z,4.53
2019-03-06T20:16:53.489Z,2.47
2019-03-06T20:19:23.015Z,5.67
2019-03-06T20:21:52.824Z,8.23
2019-03-06T20:24:22.419Z,3.55
2019-03-06T20:26:51.952Z,9.73
2019-03-06T20:29:21.544Z,6.10
2019-03-06T20:31:51.137Z,1.90
2019-03-06T20:34:20.736Z,5.25
2019-03-06T20:36:50.512Z,6.10
2019-03-06T20:39:20.049Z,7.72
2019-03-06T20:41:49.580Z,3.03
2019-03-06T20:44:19.130Z,2.90
2019-03-06T20:46:48.788Z,3.50
2019-03-06T20:49:18.314Z,3.75
2019-03-06T20:51:48.128Z,4.12
2019-03-06T20:54:17.652Z,6.20
2019-03-06T20:56:47.191Z,5.08
2019-03-06T20:59:16.715Z,3.52
2019-03-06T21:01:46.387Z,2.98
2019-03-06T21:04:16.924Z,5.50
2019-03-06T21:06:46.775Z,4.58
2019-03-06T21:09:17.100Z,4.22
2019-03-06T21:11:46.916Z,3.00
2019-03-06T21:14:16.557Z,5.28
2019-03-06T21:16:46.128Z,3.25
2019-03-06T21:19:15.632Z,6.45
2019-03-06T21:21:45.157Z,5.42
2019-03-06T21:24:14.699Z,5.33
2019-03-06T21:26:45.357Z,4.35
2019-03-06T21:29:14.897Z,3.43
2019-03-06T21:31:44.453Z,4.00
2019-03-06T21:34:15.105Z,6.37
2019-03-06T21:36:45.636Z,5.90
2019-03-06T21:39:25.031Z,5.90
2019-03-06T21:41:54.571Z,3.70
2019-03-06T21:44:24.099Z,3.40
2019-03-06T21:46:53.691Z,5.60
2019-03-06T21:49:24.209Z,3.97
2019-03-06T21:51:54.744Z,4.58
2019-03-06T21:54:24.439Z,3.80
2019-03-06T21:56:54.050Z,3.93
2019-03-06T21:59:23.581Z,4.17
2019-03-06T22:01:53.127Z,4.00
2019-03-06T22:04:22.648Z,4.87
2019-03-06T22:06:52.176Z,3.57
2019-03-06T22:09:21.714Z,6.60
2019-03-06T22:11:51.490Z,3.73
2019-03-06T22:14:21.265Z,5.77
2019-03-06T22:16:50.813Z,8.83
2019-03-06T22:19:20.354Z,4.50
2019-03-06T22:21:50.043Z,8.70
2019-03-06T22:24:19.554Z,5.08
2019-03-06T22:26:49.080Z,3.58
2019-03-06T22:29:18.600Z,4.67
2019-03-06T22:31:48.095Z,5.30
2019-03-06T22:34:17.634Z,5.37
2019-03-06T22:36:47.151Z,5.70
2019-03-06T22:39:16.683Z,4.50
2019-03-06T22:41:46.203Z,7.12
2019-03-06T22:44:15.716Z,6.80
2019-03-06T22:46:46.508Z,4.53
2019-03-06T22:49:16.040Z,5.55
2019-03-06T22:51:45.727Z,6.83
2019-03-06T22:54:15.270Z,7.95
2019-03-06T22:56:44.758Z,8.10
2019-03-06T22:59:14.277Z,5.90
2019-03-06T23:01:43.859Z,8.13
2019-03-06T23:04:13.376Z,6.53
2019-03-06T23:06:42.870Z,5.07
2019-03-06T23:09:12.660Z,6.03
2019-03-06T23:11:42.342Z,5.87
2019-03-06T23:14:11.857Z,8.73
2019-03-06T23:16:41.369Z,8.20
2019-03-06T23:19:10.890Z,4.70
2019-03-06T23:21:40.382Z,6.50
2019-03-06T23:24:09.975Z,6.95
2019-03-06T23:26:42.793Z,6.45
2019-03-06T23:29:10.718Z,5.85
2019-03-06T23:31:40.570Z,8.30
2019-03-06T23:34:10.403Z,9.75
2019-03-06T23:36:39.928Z,6.22
2019-03-06T23:39:12.566Z,6.50
2019-03-06T23:41:42.173Z,5.53
2019-03-06T23:44:11.799Z,9.70
2019-03-06T23:46:41.311Z,11.38
2019-03-06T23:49:10.819Z,9.10
2019-03-06T23:51:45.981Z,9.10
2019-03-06T23:54:15.576Z,7.78
2019-03-06T23:56:45.083Z,7.12
2019-03-06T23:59:14.594Z,5.97
